createdAt,value
2022-10-13T00:00:48.367Z,101786.00
2022-10-13T00:04:50.118Z,101779.53
2022-10-13T00:08:52.020Z,101766.00
2022-10-13T00:12:53.745Z,101763.34
2022-10-13T00:16:57.574Z,101774.03
2022-10-13T00:20:59.603Z,101774.03
2022-10-13T00:25:01.405Z,101770.53
2022-10-13T00:29:03.184Z,101763.34
2022-10-13T00:33:05.678Z,101758.00
2022-10-13T00:37:07.972Z,101759.53
2022-10-13T00:41:10.513Z,101764.56
2022-10-13T00:45:24.169Z,101768.78
2022-10-13T00:49:25.889Z,101771.34
2022-10-13T00:53:33.845Z,101777.53
2022-10-13T00:57:36.360Z,101777.25
2022-10-13T01:01:38.348Z,101775.25
2022-10-13T01:05:41.735Z,101775.25
2022-10-13T01:09:43.570Z,101775.25
2022-10-13T01:14:13.031Z,101765.38
2022-10-13T01:18:46.615Z,101767.09
2022-10-13T01:23:04.089Z,101758.09
2022-10-13T01:27:38.200Z,101743.72
2022-10-13T01:32:06.580Z,101744.56
2022-10-13T01:36:35.754Z,101746.38
2022-10-13T01:40:43.673Z,101749.91
2022-10-13T01:45:01.863Z,101761.31
2022-10-13T01:49:07.726Z,101753.28
2022-10-13T01:53:11.578Z,101757.63
2022-10-13T01:57:35.510Z,101747.09
2022-10-13T02:01:55.245Z,101746.22
2022-10-13T02:06:05.758Z,101711.47
2022-10-13T02:10:22.419Z,101711.06
2022-10-13T02:14:30.459Z,101700.38
2022-10-13T02:18:34.895Z,101701.22
2022-10-13T02:22:42.335Z,101697.69
2022-10-13T02:26:44.119Z,101698.69
2022-10-13T02:30:46.895Z,101699.53
2022-10-13T02:34:49.116Z,101692.34
2022-10-13T02:38:50.857Z,101687.72
2022-10-13T02:42:52.784Z,101686.88
2022-10-13T02:46:54.474Z,101687.38
2022-10-13T02:50:56.131Z,101681.75
2022-10-13T02:54:57.953Z,101676.09
2022-10-13T02:58:59.736Z,101670.47
2022-10-13T03:03:01.590Z,101679.16
2022-10-13T03:07:03.495Z,101675.53
2022-10-13T03:11:05.369Z,101668.16
2022-10-13T03:15:07.673Z,101661.69
2022-10-13T03:19:09.830Z,101659.72
2022-10-13T03:23:11.537Z,101662.22
2022-10-13T03:27:13.277Z,101639.69
2022-10-13T03:31:14.980Z,101646.56
2022-10-13T03:35:16.694Z,101642.91
2022-10-13T03:39:18.413Z,101647.25
2022-10-13T03:43:20.072Z,101648.94
2022-10-13T03:47:21.741Z,101637.38
2022-10-13T03:51:24.525Z,101634.56
2022-10-13T03:55:26.347Z,101620.22
2022-10-13T03:59:34.228Z,101608.66
2022-10-13T04:03:38.173Z,101629.38
2022-10-13T04:07:39.930Z,101639.06
2022-10-13T04:11:53.272Z,101637.38
2022-10-13T04:15:55.180Z,101639.06
2022-10-13T04:19:56.857Z,101640.78
2022-10-13T04:23:59.410Z,101642.59
2022-10-13T04:28:01.117Z,101644.28
2022-10-13T04:32:02.777Z,101639.78
2022-10-13T04:36:09.464Z,101644.13
2022-10-13T04:40:11.251Z,101644.97
2022-10-13T04:44:12.969Z,101635.09
2022-10-13T04:48:14.773Z,101632.41
2022-10-13T04:52:16.725Z,101636.78
2022-10-13T04:56:19.929Z,101624.25
2022-10-13T05:00:21.849Z,101623.25
2022-10-13T05:04:23.702Z,101619.75
2022-10-13T05:08:25.763Z,101629.44
2022-10-13T05:12:27.501Z,101624.94
2022-10-13T05:16:31.038Z,101626.63
2022-10-13T05:20:32.717Z,101626.63
2022-10-13T05:24:37.170Z,101625.75
2022-10-13T05:28:39.545Z,101623.78
2022-10-13T05:32:41.279Z,101622.94
2022-10-13T05:36:43.682Z,101620.94
2022-10-13T05:40:45.378Z,101627.00
2022-10-13T05:44:47.162Z,101623.19
2022-10-13T05:48:49.696Z,101615.00
2022-10-13T05:52:51.671Z,101615.69
2022-10-13T05:57:00.001Z,101611.00
2022-10-13T06:01:07.160Z,101598.34
2022-10-13T06:05:14.811Z,101589.28
2022-10-13T06:09:16.807Z,101577.59
2022-10-13T06:13:18.609Z,101564.06
2022-10-13T06:17:20.279Z,101574.59
2022-10-13T06:21:22.155Z,101575.31
2022-10-13T06:25:23.852Z,101594.03
2022-10-13T06:29:25.571Z,101595.72
2022-10-13T06:33:27.253Z,101605.59
2022-10-13T06:37:29.037Z,101601.06
2022-10-13T06:41:30.736Z,101608.09
2022-10-13T06:45:32.432Z,101603.56
2022-10-13T06:49:34.163Z,101611.50
2022-10-13T06:53:36.432Z,101614.84
2022-10-13T06:57:38.311Z,101606.69
2022-10-13T07:01:42.295Z,101607.53
2022-10-13T07:05:47.415Z,101611.88
2022-10-13T07:09:49.557Z,101600.84
2022-10-13T07:13:51.318Z,101606.88
2022-10-13T07:17:54.118Z,101611.09
2022-10-13T07:21:56.890Z,101596.56
2022-10-13T07:25:58.887Z,101600.59
2022-10-13T07:30:00.571Z,101593.94
2022-10-13T07:34:02.356Z,101580.25
2022-10-13T07:38:05.059Z,101580.75
2022-10-13T07:42:06.861Z,101592.00
2022-10-13T07:46:10.252Z,101595.03
2022-10-13T07:50:12.106Z,101585.69
2022-10-13T07:54:14.374Z,101597.75
2022-10-13T07:58:16.271Z,101590.41
2022-10-13T08:02:18.198Z,101598.81
2022-10-13T08:06:20.103Z,101598.50
2022-10-13T08:10:22.186Z,101599.03
2022-10-13T08:14:23.881Z,101594.19
2022-10-13T08:18:25.565Z,101599.22
2022-10-13T08:22:28.405Z,101590.88
2022-10-13T08:26:30.585Z,101599.44
2022-10-13T08:30:32.913Z,101591.22
2022-10-13T08:34:36.604Z,101588.06
2022-10-13T08:38:38.386Z,101587.91
2022-10-13T08:42:44.043Z,101577.84
2022-10-13T08:47:01.960Z,101582.91
2022-10-13T08:51:07.597Z,101579.91
2022-10-13T08:55:25.307Z,101579.41
2022-10-13T08:59:27.056Z,101579.63
2022-10-13T09:03:29.929Z,101577.59
2022-10-13T09:07:35.183Z,101581.09
2022-10-13T09:11:39.965Z,101573.94
2022-10-13T09:15:47.840Z,101588.31
2022-10-13T09:19:59.537Z,101585.50
2022-10-13T09:24:13.505Z,101593.22
2022-10-13T09:28:31.459Z,101586.66
2022-10-13T09:32:35.785Z,101593.25
2022-10-13T09:36:38.369Z,101580.50
2022-10-13T09:40:41.137Z,101583.03
2022-10-13T09:44:43.092Z,101590.06
2022-10-13T09:48:50.713Z,101588.91
2022-10-13T09:52:53.202Z,101581.69
2022-10-13T09:57:03.875Z,101567.44
2022-10-13T10:01:06.369Z,101572.63
2022-10-13T10:05:27.275Z,101575.00
2022-10-13T10:09:36.644Z,101567.28
2022-10-13T10:13:38.371Z,101567.50
2022-10-13T10:17:47.984Z,101573.38
2022-10-13T10:21:49.610Z,101566.34
2022-10-13T10:25:59.453Z,101559.28
2022-10-13T10:30:18.969Z,101564.00
2022-10-13T10:34:35.204Z,101558.97
2022-10-13T10:39:02.952Z,101571.72
2022-10-13T10:43:24.795Z,101562.66
2022-10-13T10:47:42.180Z,101554.78
2022-10-13T10:51:44.974Z,101549.59
2022-10-13T10:55:53.542Z,101551.09
2022-10-13T11:00:15.279Z,101539.50
2022-10-13T11:04:32.500Z,101541.53
2022-10-13T11:08:41.811Z,101536.50
2022-10-13T11:12:52.709Z,101542.19
2022-10-13T11:17:06.629Z,101538.00
2022-10-13T11:21:08.468Z,101537.47
2022-10-13T11:25:40.593Z,101546.03
2022-10-13T11:29:52.042Z,101537.75
2022-10-13T11:34:01.850Z,101528.19
2022-10-13T11:38:21.426Z,101520.31
2022-10-13T11:43:03.802Z,101510.88
2022-10-13T11:47:19.202Z,101498.81
2022-10-13T11:51:42.643Z,101511.88
2022-10-13T11:55:54.664Z,101520.94
2022-10-13T11:59:57.076Z,101502.56
2022-10-13T12:04:15.237Z,101505.19
2022-10-13T12:08:19.969Z,101505.50
2022-10-13T12:12:23.428Z,101504.66
2022-10-13T12:16:26.616Z,101488.72
2022-10-13T12:20:31.306Z,101495.25
2022-10-13T12:24:33.013Z,101481.50
2022-10-13T12:29:00.802Z,101482.31
2022-10-13T12:33:04.167Z,101477.28
2022-10-13T12:37:19.005Z,101476.97
2022-10-13T12:41:30.710Z,101477.16
2022-10-13T12:45:34.715Z,101475.31
2022-10-13T12:49:37.067Z,101488.69
2022-10-13T12:53:39.595Z,101485.31
2022-10-13T12:57:45.160Z,101482.16
2022-10-13T13:02:02.678Z,101469.75
2022-10-13T13:06:11.583Z,101484.31
2022-10-13T13:10:20.737Z,101488.13
2022-10-13T13:14:36.678Z,101481.25
2022-10-13T13:18:41.850Z,101477.75
2022-10-13T13:22:43.561Z,101472.22
2022-10-13T13:26:46.301Z,101468.56
2022-10-13T13:30:47.966Z,101475.59
2022-10-13T13:34:50.215Z,101472.06
2022-10-13T13:38:53.201Z,101477.56
2022-10-13T13:42:55.445Z,101473.75
2022-10-13T13:47:00.184Z,101472.91
2022-10-13T13:51:02.061Z,101482.25
2022-10-13T13:55:03.985Z,101485.09
2022-10-13T13:59:05.660Z,101473.00
2022-10-13T14:03:07.382Z,101453.06
2022-10-13T14:07:09.852Z,101452.06
2022-10-13T14:11:12.027Z,101453.38
2022-10-13T14:15:13.782Z,101444.81
2022-10-13T14:19:15.523Z,101447.97
2022-10-13T14:23:17.508Z,101455.47
2022-10-13T14:27:19.174Z,101456.63
2022-10-13T14:31:20.866Z,101453.78
2022-10-13T14:35:22.597Z,101452.09
2022-10-13T14:39:24.328Z,101449.28
2022-10-13T14:43:26.400Z,101455.47
2022-10-13T14:47:28.152Z,101453.63
2022-10-13T14:51:29.886Z,101450.28
2022-10-13T14:55:32.291Z,101442.25
2022-10-13T14:59:34.036Z,101438.41
2022-10-13T15:03:35.738Z,101450.34
2022-10-13T15:07:40.981Z,101431.97
2022-10-13T15:11:43.123Z,101433.50
2022-10-13T15:15:48.148Z,101432.19
2022-10-13T15:19:50.069Z,101419.81
2022-10-13T15:23:52.002Z,101430.50
2022-10-13T15:27:53.833Z,101442.06
2022-10-13T15:32:08.173Z,101431.88
2022-10-13T15:36:09.998Z,101447.44
2022-10-13T15:40:14.382Z,101457.34
2022-10-13T15:44:19.710Z,101449.34
2022-10-13T15:48:21.771Z,101446.69
2022-10-13T15:52:23.940Z,101427.63
2022-10-13T15:56:26.089Z,101424.97
2022-10-13T16:00:27.870Z,101427.63
2022-10-13T16:04:33.475Z,101430.50
2022-10-13T16:08:39.870Z,101433.81
2022-10-13T16:12:46.981Z,101434.16
2022-10-13T16:16:51.242Z,101434.63
2022-10-13T16:20:52.957Z,101441.00
2022-10-13T16:24:54.636Z,101441.84
2022-10-13T16:28:56.912Z,101446.19
2022-10-13T16:32:58.689Z,101456.38
2022-10-13T16:37:00.380Z,101453.03
2022-10-13T16:41:06.751Z,101462.75
2022-10-13T16:45:09.013Z,101473.31
2022-10-13T16:49:11.558Z,101477.81
2022-10-13T16:53:13.401Z,101475.81
2022-10-13T16:57:15.177Z,101478.50
2022-10-13T17:01:17.054Z,101491.19
2022-10-13T17:05:18.796Z,101495.72
2022-10-13T17:09:20.483Z,101500.41
2022-10-13T17:13:22.287Z,101504.25
2022-10-13T17:17:24.665Z,101501.56
2022-10-13T17:21:26.337Z,101503.56
2022-10-13T17:25:28.407Z,101505.56
2022-10-13T17:29:30.247Z,101500.53
2022-10-13T17:33:34.456Z,101516.06
2022-10-13T17:37:36.305Z,101514.03
2022-10-13T17:41:38.037Z,101500.44
2022-10-13T17:45:39.883Z,101513.75
2022-10-13T17:49:41.578Z,101511.84
2022-10-13T17:53:45.994Z,101509.63
2022-10-13T17:57:47.807Z,101512.09
2022-10-13T18:01:49.785Z,101515.38
2022-10-13T18:05:53.491Z,101534.59
2022-10-13T18:09:55.207Z,101526.88
2022-10-13T18:13:58.752Z,101528.16
2022-10-13T18:18:00.478Z,101542.84
2022-10-13T18:22:04.405Z,101529.06
2022-10-13T18:26:17.348Z,101527.41
2022-10-13T18:30:22.313Z,101535.72
2022-10-13T18:34:24.861Z,101531.69
2022-10-13T18:38:26.957Z,101542.97
2022-10-13T18:42:28.907Z,101538.94
2022-10-13T18:46:32.253Z,101523.88
2022-10-13T18:50:37.885Z,101528.69
2022-10-13T18:54:39.610Z,101526.47
2022-10-13T18:58:41.788Z,101525.09
2022-10-13T19:02:43.535Z,101520.06
2022-10-13T19:06:46.583Z,101524.69
2022-10-13T19:10:48.336Z,101525.69
2022-10-13T19:14:50.069Z,101522.03
2022-10-13T19:18:52.405Z,101530.75
2022-10-13T19:22:54.115Z,101537.78
2022-10-13T19:26:56.299Z,101535.09
2022-10-13T19:30:58.067Z,101536.09
2022-10-13T19:34:59.888Z,101539.78
2022-10-13T19:39:03.971Z,101546.78
2022-10-13T19:43:05.763Z,101534.44
2022-10-13T19:47:07.498Z,101531.06
2022-10-13T19:51:09.833Z,101547.38
2022-10-13T19:55:11.749Z,101546.84
2022-10-13T19:59:14.457Z,101548.31
2022-10-13T20:03:16.541Z,101553.41
2022-10-13T20:07:20.865Z,101546.13
2022-10-13T20:11:24.321Z,101555.59
2022-10-13T20:15:26.294Z,101559.38
2022-10-13T20:19:34.065Z,101554.34
2022-10-13T20:23:35.901Z,101558.28
2022-10-13T20:27:37.560Z,101566.75
2022-10-13T20:31:39.768Z,101560.88
2022-10-13T20:35:41.449Z,101552.16
2022-10-13T20:39:43.162Z,101554.97
2022-10-13T20:43:46.239Z,101556.09
2022-10-13T20:47:50.723Z,101568.78
2022-10-13T20:51:52.510Z,101567.22
2022-10-13T20:55:58.544Z,101558.38
2022-10-13T21:00:00.192Z,101566.84
2022-10-13T21:04:01.957Z,101565.28
2022-10-13T21:08:03.730Z,101566.13
2022-10-13T21:12:06.315Z,101553.91
2022-10-13T21:16:11.497Z,101558.66
2022-10-13T21:20:13.228Z,101549.25
2022-10-13T21:24:14.895Z,101543.66
2022-10-13T21:28:16.719Z,101538.63
2022-10-13T21:32:19.553Z,101536.53
2022-10-13T21:36:25.193Z,101522.47
2022-10-13T21:40:27.135Z,101520.66
2022-10-13T21:44:30.968Z,101523.19
2022-10-13T21:48:32.681Z,101521.50
2022-10-13T21:52:35.810Z,101520.78
2022-10-13T21:56:38.414Z,101513.78
2022-10-13T22:00:40.650Z,101519.13
2022-10-13T22:04:42.562Z,101526.41
2022-10-13T22:08:45.897Z,101524.75
2022-10-13T22:12:48.906Z,101521.41
2022-10-13T22:16:52.682Z,101517.31
2022-10-13T22:20:54.347Z,101511.28
2022-10-13T22:24:56.048Z,101510.00
2022-10-13T22:29:02.903Z,101508.78
2022-10-13T22:33:04.617Z,101505.41
2022-10-13T22:37:06.317Z,101493.22
2022-10-13T22:41:08.710Z,101495.16
2022-10-13T22:45:10.583Z,101495.03
2022-10-13T22:49:13.480Z,101489.84
2022-10-13T22:53:15.302Z,101485.22
2022-10-13T22:57:17.014Z,101488.72
2022-10-13T23:01:19.068Z,101487.03
2022-10-13T23:05:20.854Z,101481.81
2022-10-13T23:09:22.556Z,101481.00
2022-10-13T23:13:24.603Z,101463.88
2022-10-13T23:17:27.645Z,101461.88
2022-10-13T23:21:30.725Z,101459.09
2022-10-13T23:25:34.630Z,101462.16
2022-10-13T23:29:36.384Z,101462.16
2022-10-13T23:33:38.172Z,101465.69
2022-10-13T23:37:40.026Z,101464.97
2022-10-13T23:41:41.730Z,101460.78
2022-10-13T23:45:44.281Z,101463.03
2022-10-13T23:49:48.507Z,101460.53
2022-10-13T23:53:51.127Z,101465.00
2022-10-13T23:57:52.849Z,101456.88
